createdAt,value
2018-12-31T00:00:04.482Z,22.1
2018-12-31T00:00:54.475Z,22.1
2018-12-31T00:01:44.305Z,22.1
2018-12-31T00:02:32.752Z,22.1
2018-12-31T00:03:25.226Z,22.1
2018-12-31T00:04:14.007Z,22.1
2018-12-31T00:05:04.302Z,22.1
2018-12-31T00:05:55.758Z,22.1
2018-12-31T00:06:44.159Z,22.1
2018-12-31T00:07:35.267Z,22.1
2018-12-31T00:08:24.834Z,22
2018-12-31T00:09:14.339Z,22
2018-12-31T00:10:04.976Z,22
2018-12-31T00:10:54.719Z,21.9
2018-12-31T00:11:44.229Z,21.9
2018-12-31T00:12:35.834Z,21.9
2018-12-31T00:13:25.172Z,21.9
2018-12-31T00:14:14.917Z,21.9
2018-12-31T00:15:04.677Z,21.9
2018-12-31T00:33:15.292Z,22.1
2018-12-31T00:34:06.498Z,22.1
2018-12-31T00:34:56.851Z,22.1
2018-12-31T00:35:46.348Z,22.1
2018-12-31T00:36:36.963Z,22.1
2018-12-31T00:37:25.911Z,22.1
2018-12-31T00:38:16.328Z,22
2018-12-31T00:39:06.833Z,22
2018-12-31T00:39:55.038Z,22
2018-12-31T00:40:46.675Z,21.9
2018-12-31T00:41:35.902Z,21.9
2018-12-31T00:42:27.075Z,21.9
2018-12-31T00:43:17.675Z,21.9
2018-12-31T00:44:07.423Z,21.9
2018-12-31T00:44:56.695Z,21.9
2018-12-31T00:45:45.686Z,21.8
2018-12-31T00:46:37.704Z,21.8
2018-12-31T00:47:27.432Z,21.8
2018-12-31T00:48:17.154Z,21.8
2018-12-31T00:49:07.229Z,21.8
2018-12-31T00:49:56.487Z,21.9
2018-12-31T00:50:47.399Z,21.9
2018-12-31T00:51:37.406Z,21.9
2018-12-31T00:52:27.502Z,21.9
2018-12-31T00:53:17.535Z,21.9
2018-12-31T00:54:07.024Z,21.9
2018-12-31T00:54:57.627Z,21.9
2018-12-31T00:55:47.149Z,21.9
2018-12-31T00:56:38.376Z,22
2018-12-31T00:57:27.851Z,22
2018-12-31T00:58:18.421Z,22.1
2018-12-31T00:59:08.068Z,22.1
2018-12-31T00:59:58.604Z,22.1
2018-12-31T01:00:47.297Z,22.1
2018-12-31T01:01:38.116Z,22.1
2018-12-31T01:02:29.878Z,22.1
2018-12-31T01:03:17.491Z,22.2
2018-12-31T01:04:08.720Z,22.2
2018-12-31T01:04:58.119Z,22.2
2018-12-31T01:05:48.173Z,22.2
2018-12-31T01:06:37.971Z,22.2
2018-12-31T01:07:27.686Z,22.1
2018-12-31T01:08:17.553Z,22.1
2018-12-31T01:09:08.688Z,22.1
2018-12-31T01:09:59.113Z,22
2018-12-31T01:10:49.070Z,22
2018-12-31T01:11:38.823Z,22
2018-12-31T01:12:28.352Z,21.9
2018-12-31T01:13:19.207Z,22
2018-12-31T01:14:09.739Z,22
2018-12-31T01:14:59.045Z,22
2018-12-31T01:15:49.159Z,22
2018-12-31T01:16:38.580Z,22
2018-12-31T01:17:28.404Z,22.1
2018-12-31T01:18:18.987Z,22.1
2018-12-31T01:19:09.408Z,22.1
2018-12-31T01:19:58.814Z,22.1
2018-12-31T01:20:50.087Z,22.1
2018-12-31T01:21:38.655Z,22.1
2018-12-31T01:22:29.479Z,22.2
2018-12-31T01:23:19.887Z,22.2
2018-12-31T01:24:09.939Z,22.2
2018-12-31T01:24:59.750Z,22.1
2018-12-31T01:25:50.061Z,22.2
2018-12-31T01:26:39.307Z,22.2
2018-12-31T01:27:30.179Z,22.1
2018-12-31T01:28:20.038Z,22.1
2018-12-31T01:29:09.251Z,22.1
2018-12-31T01:30:00.947Z,22.1
2018-12-31T01:30:50.731Z,22.1
2018-12-31T01:31:39.145Z,22
2018-12-31T01:32:29.689Z,22
2018-12-31T01:33:20.314Z,22
2018-12-31T01:34:10.656Z,21.9
2018-12-31T01:35:00.951Z,21.9
2018-12-31T01:35:51.066Z,21.9
2018-12-31T01:36:40.506Z,21.9
2018-12-31T01:37:30.661Z,21.9
2018-12-31T01:38:20.930Z,21.9
2018-12-31T01:39:11.255Z,21.9
2018-12-31T01:40:01.601Z,21.9
2018-12-31T01:40:50.842Z,21.9
2018-12-31T01:41:41.765Z,21.9
2018-12-31T01:42:31.513Z,21.9
2018-12-31T01:43:20.252Z,21.9
2018-12-31T01:44:10.060Z,21.9
2018-12-31T01:45:00.165Z,22
2018-12-31T01:45:51.013Z,22
2018-12-31T01:46:40.185Z,22
2018-12-31T01:47:30.790Z,22.1
2018-12-31T01:48:20.870Z,22.1
2018-12-31T01:49:10.704Z,22.1
2018-12-31T01:50:01.416Z,22.1
2018-12-31T01:50:50.387Z,22.1
2018-12-31T01:51:41.907Z,22.1
2018-12-31T01:52:31.444Z,22.2
2018-12-31T01:53:21.993Z,22.2
2018-12-31T01:54:12.271Z,22.2
2018-12-31T01:55:02.364Z,22.2
2018-12-31T01:55:51.307Z,22.1
2018-12-31T01:56:41.349Z,22.1
2018-12-31T01:57:31.971Z,22.1
2018-12-31T01:58:21.764Z,22.1
2018-12-31T01:59:12.636Z,22.1
2018-12-31T02:00:01.936Z,22.1
2018-12-31T02:00:52.531Z,22.1
2018-12-31T02:01:41.430Z,22
2018-12-31T02:02:32.381Z,22
2018-12-31T02:03:21.278Z,22
2018-12-31T02:04:11.861Z,21.9
2018-12-31T02:05:02.776Z,21.9
2018-12-31T02:05:52.272Z,21.9
2018-12-31T02:06:42.303Z,21.9
2018-12-31T02:07:33.213Z,21.9
2018-12-31T02:08:22.168Z,21.9
2018-12-31T02:09:12.001Z,21.9
2018-12-31T02:10:02.670Z,21.9
2018-12-31T02:10:53.178Z,21.9
2018-12-31T02:11:42.750Z,21.9
2018-12-31T02:12:33.543Z,21.9
2018-12-31T02:13:22.600Z,21.9
2018-12-31T02:14:12.900Z,21.9
2018-12-31T02:15:02.635Z,22
2018-12-31T02:15:54.290Z,22
2018-12-31T02:16:42.440Z,22
2018-12-31T02:17:33.628Z,22
2018-12-31T02:18:22.853Z,22.1
2018-12-31T02:19:12.412Z,22.1
2018-12-31T02:20:03.178Z,22.1
2018-12-31T02:20:53.275Z,22.1
2018-12-31T02:21:44.426Z,22.2
2018-12-31T02:22:33.813Z,22.2
2018-12-31T02:23:23.475Z,22.2
2018-12-31T02:24:13.509Z,22.2
2018-12-31T02:25:03.597Z,22.2
2018-12-31T02:25:53.972Z,22.2
2018-12-31T02:26:43.768Z,22.1
2018-12-31T02:27:34.043Z,22.1
2018-12-31T02:28:24.455Z,22.1
2018-12-31T02:29:14.487Z,22.1
2018-12-31T02:30:04.624Z,22.1
2018-12-31T02:30:53.852Z,22.1
2018-12-31T02:31:44.427Z,22.1
2018-12-31T02:32:34.156Z,22
2018-12-31T02:33:24.622Z,21.9
2018-12-31T02:34:14.542Z,21.9
2018-12-31T02:35:04.078Z,21.9
2018-12-31T02:35:53.540Z,21.9
2018-12-31T02:36:44.467Z,21.9
2018-12-31T02:37:33.694Z,21.9
2018-12-31T02:38:24.679Z,21.9
2018-12-31T02:39:14.688Z,21.9
2018-12-31T02:40:06.283Z,21.9
2018-12-31T02:40:53.679Z,21.9
2018-12-31T02:41:47.539Z,21.9
2018-12-31T02:42:36.674Z,21.9
2018-12-31T02:43:24.196Z,21.9
2018-12-31T02:44:14.950Z,22
2018-12-31T02:45:06.506Z,22
2018-12-31T02:45:55.341Z,22
2018-12-31T02:46:45.386Z,22
2018-12-31T02:47:38.536Z,22.1
2018-12-31T02:48:25.833Z,22.1
2018-12-31T02:49:15.256Z,22.1
2018-12-31T02:50:05.122Z,22.1
2018-12-31T02:50:55.696Z,22.1
2018-12-31T02:51:45.900Z,22.1
2018-12-31T02:52:36.253Z,22.2
2018-12-31T02:53:24.823Z,22.2
2018-12-31T02:54:15.060Z,22.2
2018-12-31T02:55:06.590Z,22.2
2018-12-31T02:55:55.490Z,22.2
2018-12-31T02:56:45.843Z,22.2
2018-12-31T02:57:35.857Z,22.1
2018-12-31T02:58:25.727Z,22.1
2018-12-31T02:59:16.229Z,22.1
2018-12-31T03:00:06.478Z,22.1
2018-12-31T03:00:56.758Z,22.1
2018-12-31T03:01:46.991Z,22.1
2018-12-31T03:02:36.802Z,22.1
2018-12-31T03:03:27.340Z,22
2018-12-31T03:04:15.572Z,22
2018-12-31T03:05:06.457Z,22
2018-12-31T03:05:57.557Z,21.9
2018-12-31T03:06:46.500Z,21.9
2018-12-31T03:07:36.395Z,21.9
2018-12-31T03:08:27.595Z,21.9
2018-12-31T03:09:16.417Z,21.9
2018-12-31T03:10:06.722Z,21.9
2018-12-31T03:10:57.044Z,21.9
2018-12-31T03:11:47.102Z,21.9
2018-12-31T03:12:38.032Z,21.9
2018-12-31T03:13:26.230Z,21.9
2018-12-31T03:14:16.217Z,22
2018-12-31T03:15:07.154Z,22
2018-12-31T03:15:55.787Z,22
2018-12-31T03:16:47.071Z,22
2018-12-31T03:17:37.024Z,22
2018-12-31T03:18:26.789Z,22
2018-12-31T03:19:16.837Z,21.9
2018-12-31T03:20:07.627Z,21.9
2018-12-31T03:20:57.266Z,21.9
2018-12-31T03:21:46.999Z,21.8
2018-12-31T03:22:37.366Z,21.8
2018-12-31T03:23:28.075Z,21.8
2018-12-31T03:24:16.722Z,21.8
2018-12-31T03:25:07.730Z,21.8
2018-12-31T03:25:58.116Z,21.8
2018-12-31T03:26:47.456Z,21.8
2018-12-31T03:27:37.377Z,21.8
2018-12-31T03:28:28.772Z,21.9
2018-12-31T03:29:17.803Z,21.9
2018-12-31T03:30:08.592Z,21.9
2018-12-31T03:30:58.067Z,21.9
2018-12-31T03:31:48.865Z,21.9
2018-12-31T03:32:38.774Z,22
2018-12-31T03:33:29.157Z,22
2018-12-31T03:34:18.965Z,22
2018-12-31T03:35:09.394Z,22.1
2018-12-31T03:35:58.766Z,22.1
2018-12-31T03:36:48.545Z,22.1
2018-12-31T03:37:38.115Z,22.1
2018-12-31T03:38:28.669Z,22.2
2018-12-31T03:39:19.491Z,22.2
2018-12-31T03:40:08.772Z,22.2
2018-12-31T03:40:58.794Z,22.1
2018-12-31T03:41:49.296Z,22.1
2018-12-31T03:42:39.213Z,22.1
2018-12-31T03:43:29.543Z,22.1
2018-12-31T03:44:18.507Z,22.1
2018-12-31T03:45:09.413Z,22.1
2018-12-31T03:45:59.181Z,22.1
2018-12-31T03:46:49.043Z,22
2018-12-31T03:47:39.553Z,22
2018-12-31T03:48:29.888Z,21.9
2018-12-31T03:49:20.021Z,21.9
2018-12-31T03:50:09.855Z,21.9
2018-12-31T03:51:00.003Z,21.9
2018-12-31T03:51:48.719Z,21.9
2018-12-31T03:52:39.363Z,21.9
2018-12-31T03:53:29.781Z,21.9
2018-12-31T03:54:20.220Z,21.9
2018-12-31T03:55:10.402Z,21.9
2018-12-31T03:56:00.660Z,21.9
2018-12-31T03:56:52.125Z,21.9
2018-12-31T03:57:40.243Z,21.9
2018-12-31T03:58:29.955Z,21.9
2018-12-31T03:59:19.577Z,21.9
2018-12-31T04:00:09.600Z,22
2018-12-31T04:01:00.150Z,22
2018-12-31T04:01:50.814Z,22
2018-12-31T04:02:40.860Z,22.1
2018-12-31T04:03:30.663Z,22.1
2018-12-31T04:04:20.448Z,22.1
2018-12-31T04:05:10.542Z,22.1
2018-12-31T04:06:00.542Z,22.1
2018-12-31T04:06:50.875Z,22.2
2018-12-31T04:07:40.672Z,22.2
2018-12-31T04:08:30.465Z,22.2
2018-12-31T04:09:21.607Z,22.2
2018-12-31T04:10:10.648Z,22.2
2018-12-31T04:11:01.235Z,22.2
2018-12-31T04:11:51.497Z,22.2
2018-12-31T04:12:41.567Z,22.2
2018-12-31T04:13:31.319Z,22.1
2018-12-31T04:14:20.607Z,22.1
2018-12-31T04:15:11.456Z,22.1
2018-12-31T04:16:01.553Z,22.1
2018-12-31T04:16:51.027Z,22.1
2018-12-31T04:17:42.152Z,22.1
2018-12-31T04:18:31.651Z,22
2018-12-31T04:19:22.839Z,22
2018-12-31T04:20:12.072Z,21.9
2018-12-31T04:21:01.628Z,21.9
2018-12-31T04:21:52.151Z,21.9
2018-12-31T04:22:40.276Z,21.9
2018-12-31T04:23:34.055Z,21.9
2018-12-31T04:24:22.391Z,21.9
2018-12-31T04:25:13.181Z,21.9
2018-12-31T04:26:01.947Z,21.9
2018-12-31T04:26:51.718Z,21.9
2018-12-31T04:27:41.779Z,21.9
2018-12-31T04:28:32.393Z,21.9
2018-12-31T04:29:21.600Z,22
2018-12-31T04:30:11.716Z,22
2018-12-31T04:31:02.625Z,22
2018-12-31T04:31:52.043Z,22.1
2018-12-31T04:32:42.170Z,22.1
2018-12-31T04:33:32.780Z,22.1
2018-12-31T04:34:23.301Z,22.1
2018-12-31T04:35:13.147Z,22.1
2018-12-31T04:36:02.390Z,22.2
2018-12-31T04:36:52.677Z,22.2
2018-12-31T04:37:43.553Z,22.2
2018-12-31T04:38:33.106Z,22.3
2018-12-31T04:39:23.375Z,22.3
2018-12-31T04:40:12.667Z,22.3
2018-12-31T04:41:04.042Z,22.3
2018-12-31T04:41:53.568Z,22.3
2018-12-31T04:42:42.805Z,22.2
2018-12-31T04:43:33.132Z,22.2
2018-12-31T04:44:22.615Z,22.1
2018-12-31T04:45:13.032Z,22.1
2018-12-31T05:02:35.383Z,22
2018-12-31T05:03:24.653Z,22.1
2018-12-31T05:04:13.806Z,22.1
2018-12-31T05:05:04.266Z,22.1
2018-12-31T05:05:53.923Z,22.1
2018-12-31T05:06:44.253Z,22.1
2018-12-31T05:07:34.153Z,21.9
2018-12-31T05:08:24.931Z,21.8
2018-12-31T05:09:13.694Z,21.6
2018-12-31T05:10:03.692Z,21.5
2018-12-31T05:10:54.693Z,21.4
2018-12-31T05:11:43.797Z,21.3
2018-12-31T05:12:35.450Z,21.2
2018-12-31T05:13:24.714Z,21.2
2018-12-31T05:15:54.615Z,21.1
2018-12-31T05:16:45.206Z,21
2018-12-31T05:17:35.894Z,21
2018-12-31T05:18:24.836Z,21
2018-12-31T05:19:14.552Z,21
2018-12-31T05:20:05.232Z,20.9
2018-12-31T05:20:54.660Z,20.9
2018-12-31T05:21:45.312Z,20.9
2018-12-31T05:22:35.035Z,20.9
2018-12-31T05:23:24.650Z,20.9
2018-12-31T05:24:14.630Z,20.9
2018-12-31T05:25:05.490Z,20.9
2018-12-31T05:25:54.549Z,20.9
2018-12-31T05:26:45.889Z,20.9
2018-12-31T05:27:36.184Z,20.9
2018-12-31T05:28:25.164Z,20.9
2018-12-31T05:29:15.524Z,20.9
2018-12-31T05:30:05.854Z,20.9
2018-12-31T05:30:54.787Z,20.9
2018-12-31T05:31:45.424Z,20.9
2018-12-31T05:32:35.980Z,20.9
2018-12-31T05:33:26.950Z,20.9
2018-12-31T05:34:16.465Z,20.9
2018-12-31T05:35:06.482Z,20.9
2018-12-31T05:35:56.232Z,20.9
2018-12-31T05:36:46.274Z,20.9
2018-12-31T05:37:35.810Z,20.9
2018-12-31T05:38:26.759Z,20.9
2018-12-31T05:39:16.735Z,20.9
2018-12-31T05:40:06.729Z,20.9
2018-12-31T05:40:57.099Z,20.9
2018-12-31T05:41:46.356Z,20.8
2018-12-31T05:42:36.682Z,20.8
2018-12-31T05:43:26.416Z,20.8
2018-12-31T05:44:16.044Z,20.8
2018-12-31T05:45:06.921Z,20.8
2018-12-31T05:45:56.653Z,20.8
2018-12-31T05:46:46.701Z,20.8
2018-12-31T05:47:36.533Z,20.8
2018-12-31T05:48:26.014Z,20.8
2018-12-31T05:49:17.204Z,20.8
2018-12-31T05:50:07.774Z,20.8
2018-12-31T05:50:57.201Z,20.8
2018-12-31T05:51:47.576Z,20.8
2018-12-31T05:52:36.529Z,20.9
2018-12-31T05:53:26.833Z,20.9
2018-12-31T05:54:16.956Z,20.9
2018-12-31T05:55:07.653Z,20.9
2018-12-31T05:55:57.345Z,20.9
2018-12-31T05:56:46.570Z,20.9
2018-12-31T05:57:37.183Z,20.9
2018-12-31T05:58:27.523Z,20.9
2018-12-31T05:59:17.619Z,20.9
2018-12-31T06:00:07.625Z,21
2018-12-31T06:00:57.968Z,20.9
2018-12-31T06:01:47.734Z,20.9
2018-12-31T06:02:38.115Z,20.9
2018-12-31T06:03:28.920Z,20.9
2018-12-31T06:04:18.457Z,20.9
2018-12-31T06:05:08.198Z,20.9
2018-12-31T06:05:58.345Z,20.9
2018-12-31T06:06:47.503Z,20.9
2018-12-31T06:07:38.468Z,20.9
2018-12-31T06:08:28.355Z,20.9
2018-12-31T06:09:18.275Z,20.9
2018-12-31T06:10:08.856Z,20.9
2018-12-31T06:10:58.632Z,20.9
2018-12-31T06:11:48.672Z,20.8
2018-12-31T06:12:38.731Z,20.8
2018-12-31T06:13:29.647Z,20.8
2018-12-31T06:14:17.755Z,20.8
2018-12-31T06:15:09.565Z,20.8
2018-12-31T06:15:58.937Z,20.8
2018-12-31T06:16:48.770Z,20.8
2018-12-31T06:17:38.612Z,20.8
2018-12-31T06:18:29.626Z,20.8
2018-12-31T06:19:19.532Z,20.8
2018-12-31T06:20:08.764Z,20.8
2018-12-31T06:20:59.358Z,20.8
2018-12-31T06:21:49.369Z,20.8
2018-12-31T06:22:39.974Z,20.8
2018-12-31T06:23:30.074Z,20.8
2018-12-31T06:24:19.552Z,20.8
2018-12-31T06:25:09.202Z,20.9
2018-12-31T06:25:59.154Z,20.9
2018-12-31T06:26:50.042Z,20.9
2018-12-31T06:27:39.464Z,20.9
2018-12-31T06:28:29.857Z,20.9
2018-12-31T06:29:19.311Z,20.9
2018-12-31T06:30:09.385Z,20.9
2018-12-31T06:31:01.079Z,20.9
2018-12-31T06:31:50.045Z,20.9
2018-12-31T06:32:38.711Z,20.9
2018-12-31T06:33:29.939Z,20.9
2018-12-31T06:34:20.316Z,20.9
2018-12-31T06:35:10.902Z,20.9
2018-12-31T06:36:00.368Z,20.9
2018-12-31T06:36:49.901Z,20.9
2018-12-31T06:37:40.228Z,20.9
2018-12-31T06:38:30.494Z,20.9
2018-12-31T06:39:20.916Z,20.9
2018-12-31T06:40:10.634Z,20.9
2018-12-31T06:41:01.215Z,20.8
2018-12-31T06:41:50.178Z,20.8
2018-12-31T06:42:40.808Z,20.8
2018-12-31T06:43:30.065Z,20.8
2018-12-31T06:44:20.918Z,20.8
2018-12-31T06:45:10.753Z,20.8
2018-12-31T06:46:00.796Z,20.8
2018-12-31T06:46:51.762Z,20.8
2018-12-31T06:47:41.460Z,20.8
2018-12-31T06:48:30.615Z,20.8
2018-12-31T06:49:21.732Z,20.8
2018-12-31T06:50:10.748Z,20.8
2018-12-31T06:51:01.162Z,20.8
2018-12-31T06:51:51.415Z,20.8
2018-12-31T06:52:40.920Z,20.8
2018-12-31T06:53:31.545Z,20.8
2018-12-31T06:54:21.304Z,20.8
2018-12-31T06:55:11.146Z,20.8
2018-12-31T06:56:01.687Z,20.8
2018-12-31T06:56:51.757Z,20.8
2018-12-31T06:57:42.077Z,20.8
2018-12-31T06:58:32.791Z,20.8
2018-12-31T06:59:21.656Z,20.8
2018-12-31T07:00:12.810Z,20.9
2018-12-31T07:01:01.473Z,20.8
2018-12-31T07:01:51.513Z,20.8
2018-12-31T07:02:41.958Z,20.8
2018-12-31T07:03:32.240Z,20.8
2018-12-31T07:04:21.236Z,20.8
2018-12-31T07:05:12.593Z,20.8
2018-12-31T07:06:02.647Z,20.8
2018-12-31T07:06:52.481Z,20.8
2018-12-31T07:07:42.554Z,20.8
2018-12-31T07:08:31.718Z,20.8
2018-12-31T07:09:22.659Z,20.8
2018-12-31T07:10:11.811Z,20.8
2018-12-31T07:11:01.873Z,20.8
2018-12-31T07:11:52.768Z,20.8
2018-12-31T07:12:42.001Z,20.8
2018-12-31T07:13:34.491Z,20.8
2018-12-31T07:14:23.466Z,20.8
2018-12-31T07:15:13.515Z,20.8
2018-12-31T07:16:03.203Z,20.8
2018-12-31T07:16:53.146Z,20.8
2018-12-31T07:17:43.164Z,20.8
2018-12-31T07:18:32.228Z,20.8
2018-12-31T07:19:22.717Z,20.8
2018-12-31T07:20:12.916Z,20.8
2018-12-31T07:21:03.630Z,20.8
2018-12-31T07:21:53.706Z,20.8
2018-12-31T07:22:43.520Z,20.9
2018-12-31T07:23:33.852Z,20.9
2018-12-31T07:24:23.872Z,20.9
2018-12-31T07:25:13.430Z,20.9
2018-12-31T07:26:03.707Z,20.9
2018-12-31T07:26:52.435Z,20.9
2018-12-31T07:27:43.697Z,20.9
2018-12-31T07:28:34.504Z,20.8
2018-12-31T07:29:23.691Z,20.9
2018-12-31T07:30:13.559Z,20.9
2018-12-31T07:31:03.509Z,20.8
2018-12-31T07:31:53.599Z,20.8
2018-12-31T07:32:44.219Z,20.8
2018-12-31T07:33:33.529Z,20.8
2018-12-31T07:34:24.072Z,20.8
2018-12-31T07:35:16.240Z,20.8
2018-12-31T07:36:04.219Z,20.8
2018-12-31T07:36:54.489Z,20.8
2018-12-31T07:37:44.537Z,20.8
2018-12-31T07:38:34.569Z,20.8
2018-12-31T07:39:24.944Z,20.8
2018-12-31T07:40:14.126Z,20.8
2018-12-31T07:41:05.012Z,20.8
2018-12-31T07:41:53.706Z,20.8
2018-12-31T07:42:45.693Z,20.8
2018-12-31T07:43:34.961Z,20.8
2018-12-31T07:44:24.793Z,20.8
2018-12-31T07:45:14.768Z,20.9
2018-12-31T07:46:04.843Z,20.9
2018-12-31T07:46:54.613Z,20.9
2018-12-31T07:47:45.221Z,20.8
2018-12-31T07:48:35.276Z,20.8
2018-12-31T07:49:25.192Z,20.9
2018-12-31T07:50:15.691Z,21
2018-12-31T07:51:05.184Z,20.9
2018-12-31T07:51:56.081Z,20.9
2018-12-31T07:52:45.854Z,20.9
2018-12-31T07:53:35.418Z,20.9
2018-12-31T07:54:25.682Z,20.9
2018-12-31T07:55:16.345Z,20.9
2018-12-31T07:56:04.501Z,20.9
2018-12-31T07:56:56.623Z,20.9
2018-12-31T07:57:47.431Z,20.9
2018-12-31T07:58:35.437Z,20.9
2018-12-31T07:59:26.017Z,20.9
2018-12-31T08:00:15.325Z,20.8
2018-12-31T08:01:06.027Z,20.8
2018-12-31T08:01:55.992Z,20.8
2018-12-31T08:02:45.775Z,20.8
2018-12-31T08:03:36.285Z,20.8
2018-12-31T08:04:26.643Z,20.8
2018-12-31T08:05:16.439Z,20.8
2018-12-31T08:06:07.040Z,20.8
2018-12-31T08:06:56.500Z,20.8
2018-12-31T08:07:46.077Z,20.8
2018-12-31T08:08:36.639Z,20.8
2018-12-31T08:09:26.466Z,20.8
2018-12-31T08:10:16.226Z,20.8
2018-12-31T08:11:07.151Z,20.8
2018-12-31T08:11:56.882Z,20.8
2018-12-31T08:12:47.227Z,20.8
2018-12-31T08:13:36.462Z,20.8
2018-12-31T08:14:27.097Z,20.8
2018-12-31T08:15:16.839Z,20.8
2018-12-31T08:16:06.707Z,20.8
2018-12-31T08:16:57.523Z,20.8
2018-12-31T08:17:47.022Z,20.8
2018-12-31T08:18:37.964Z,20.8
2018-12-31T08:19:28.033Z,20.8
2018-12-31T08:20:17.174Z,20.8
2018-12-31T08:21:06.948Z,20.8
2018-12-31T08:21:57.581Z,20.8
2018-12-31T08:22:47.600Z,20.8
2018-12-31T08:23:37.887Z,20.9
2018-12-31T08:24:27.166Z,20.9
2018-12-31T08:25:18.164Z,20.9
2018-12-31T08:26:07.701Z,20.9
2018-12-31T08:26:57.608Z,20.9
2018-12-31T08:27:47.423Z,20.9
2018-12-31T08:28:37.729Z,20.9
2018-12-31T08:29:27.521Z,20.9
2018-12-31T08:30:20.391Z,20.9
2018-12-31T08:31:08.766Z,20.8
2018-12-31T08:31:58.521Z,20.9
2018-12-31T08:32:47.461Z,20.8
2018-12-31T08:33:38.338Z,20.8
2018-12-31T08:34:27.581Z,20.8
2018-12-31T08:35:18.751Z,20.8
2018-12-31T08:36:08.258Z,20.8
2018-12-31T08:36:58.951Z,20.8
2018-12-31T08:37:48.910Z,20.8
2018-12-31T08:38:37.889Z,20.8
2018-12-31T08:39:28.486Z,20.8
2018-12-31T08:40:19.068Z,20.8
2018-12-31T08:41:08.041Z,20.8
2018-12-31T08:41:58.722Z,20.8
2018-12-31T08:42:48.700Z,20.8
2018-12-31T08:43:38.210Z,20.8
2018-12-31T08:44:29.080Z,20.8
2018-12-31T08:45:19.187Z,20.8
2018-12-31T08:46:08.930Z,20.8
2018-12-31T08:46:59.038Z,20.8
2018-12-31T08:47:48.790Z,20.8
2018-12-31T08:48:39.100Z,20.8
2018-12-31T08:49:29.445Z,20.8
2018-12-31T08:50:19.490Z,20.9
2018-12-31T08:51:09.375Z,20.9
2018-12-31T08:51:59.357Z,20.9
2018-12-31T08:52:49.379Z,20.9
2018-12-31T08:53:38.877Z,20.9
2018-12-31T08:54:29.351Z,20.9
2018-12-31T08:55:21.922Z,20.9
2018-12-31T08:56:09.607Z,20.9
2018-12-31T08:57:00.504Z,20.9
2018-12-31T08:57:49.214Z,20.9
2018-12-31T08:58:40.239Z,20.9
2018-12-31T08:59:29.637Z,20.9
2018-12-31T09:00:19.899Z,20.8
2018-12-31T09:01:10.251Z,20.8
2018-12-31T09:16:57.598Z,20.9
2018-12-31T09:17:48.257Z,21.1
2018-12-31T09:21:58.754Z,21.1
2018-12-31T09:22:48.620Z,21.1
2018-12-31T09:23:39.423Z,21
2018-12-31T09:24:28.990Z,20.9
2018-12-31T09:25:19.005Z,20.9
2018-12-31T09:26:09.438Z,20.9
2018-12-31T09:26:58.680Z,20.9
2018-12-31T09:27:48.587Z,20.8
2018-12-31T09:28:39.002Z,20.8
2018-12-31T09:29:28.528Z,20.8
2018-12-31T09:30:18.847Z,20.8
2018-12-31T09:31:10.712Z,20.8
2018-12-31T09:31:59.237Z,20.8
2018-12-31T09:32:49.290Z,20.8
2018-12-31T09:33:38.289Z,20.8
2018-12-31T09:34:29.178Z,20.8
2018-12-31T09:35:19.181Z,20.8
2018-12-31T09:36:09.026Z,20.8
2018-12-31T09:36:59.347Z,20.8
2018-12-31T09:37:49.914Z,20.8
2018-12-31T09:38:38.901Z,20.8
2018-12-31T09:39:29.494Z,20.8
2018-12-31T09:40:19.588Z,20.9
2018-12-31T09:41:09.587Z,20.9
2018-12-31T09:41:59.454Z,20.8
2018-12-31T09:42:49.260Z,20.9
2018-12-31T09:43:39.749Z,20.8
2018-12-31T09:44:29.531Z,20.8
2018-12-31T09:45:19.111Z,20.8
2018-12-31T09:46:09.383Z,20.7
2018-12-31T09:47:00.556Z,20.6
2018-12-31T09:47:49.243Z,20.6
2018-12-31T09:48:40.108Z,20.6
2018-12-31T09:49:29.611Z,20.6
2018-12-31T09:50:19.999Z,20.6
2018-12-31T09:51:10.828Z,20.6
2018-12-31T09:52:00.503Z,20.6
2018-12-31T09:52:50.681Z,20.6
2018-12-31T09:53:40.726Z,20.6
2018-12-31T09:54:30.181Z,20.5
2018-12-31T09:55:20.993Z,20.5
2018-12-31T09:56:10.695Z,20.5
2018-12-31T09:57:01.195Z,20.5
2018-12-31T09:57:51.191Z,20.5
2018-12-31T09:58:43.911Z,20.5
2018-12-31T09:59:31.051Z,20.5
2018-12-31T10:00:20.871Z,20.5
2018-12-31T10:01:10.928Z,20.6
2018-12-31T10:02:01.270Z,20.6
2018-12-31T10:02:50.770Z,20.6
2018-12-31T10:03:41.385Z,20.6
2018-12-31T10:04:30.893Z,20.6
2018-12-31T10:05:21.810Z,20.6
2018-12-31T10:06:11.755Z,20.6
2018-12-31T10:07:02.522Z,20.6
2018-12-31T10:07:52.189Z,20.6
2018-12-31T10:08:50.111Z,20.7
2018-12-31T10:09:30.945Z,20.7
2018-12-31T10:10:21.505Z,20.7
2018-12-31T10:11:11.580Z,20.7
2018-12-31T10:12:02.237Z,20.7
2018-12-31T10:12:51.414Z,20.7
2018-12-31T10:13:42.513Z,20.7
2018-12-31T10:14:31.522Z,20.7
2018-12-31T10:15:22.449Z,20.7
2018-12-31T10:16:13.036Z,20.7
2018-12-31T10:17:03.097Z,20.6
2018-12-31T10:17:51.204Z,20.6
2018-12-31T10:18:43.531Z,20.6
2018-12-31T10:19:33.244Z,20.6
2018-12-31T10:20:22.187Z,20.6
2018-12-31T10:21:13.061Z,20.6
2018-12-31T10:22:02.323Z,20.6
2018-12-31T10:22:53.772Z,20.5
2018-12-31T10:23:43.287Z,20.4
2018-12-31T10:24:33.599Z,20.3
2018-12-31T10:25:22.809Z,20.3
2018-12-31T10:26:12.051Z,20.3
2018-12-31T10:27:04.089Z,20.3
2018-12-31T10:27:53.861Z,20.3
2018-12-31T10:28:43.652Z,20.3
2018-12-31T10:29:40.465Z,20.4
2018-12-31T10:30:23.969Z,20.4
2018-12-31T10:31:13.710Z,20.4
2018-12-31T10:32:03.513Z,20.5
2018-12-31T10:32:54.754Z,20.5
2018-12-31T10:33:43.455Z,20.5
2018-12-31T10:34:35.208Z,20.6
2018-12-31T10:35:23.535Z,20.6
2018-12-31T10:36:13.408Z,20.6
2018-12-31T10:37:04.138Z,20.7
2018-12-31T10:37:53.448Z,20.7
2018-12-31T10:38:44.351Z,20.7
2018-12-31T10:39:32.482Z,20.8
2018-12-31T10:40:23.660Z,20.8
2018-12-31T10:41:13.948Z,20.8
2018-12-31T10:42:02.925Z,20.7
2018-12-31T10:42:53.267Z,20.7
2018-12-31T10:43:43.883Z,20.7
2018-12-31T10:44:35.002Z,20.6
2018-12-31T10:45:24.152Z,20.6
2018-12-31T10:46:13.907Z,20.6
2018-12-31T10:47:04.595Z,20.6
2018-12-31T10:47:54.899Z,20.6
2018-12-31T10:48:45.005Z,20.5
2018-12-31T10:49:34.977Z,20.5
2018-12-31T10:50:25.341Z,20.4
2018-12-31T10:51:14.557Z,20.4
2018-12-31T10:52:04.626Z,20.4
2018-12-31T10:52:54.704Z,20.4
2018-12-31T10:53:44.481Z,20.3
2018-12-31T10:54:35.118Z,20.3
2018-12-31T10:55:25.139Z,20.4
2018-12-31T10:56:15.167Z,20.4
2018-12-31T10:57:05.749Z,20.4
2018-12-31T10:57:55.009Z,20.4
2018-12-31T10:58:45.658Z,20.4
2018-12-31T10:59:34.866Z,20.4
2018-12-31T11:00:25.236Z,20.4
2018-12-31T11:01:15.243Z,20.5
2018-12-31T11:02:05.631Z,20.5
2018-12-31T11:02:55.908Z,20.5
2018-12-31T11:03:47.749Z,20.5
2018-12-31T11:04:35.728Z,20.5
2018-12-31T11:05:25.944Z,20.5
2018-12-31T11:06:15.008Z,20.5
2018-12-31T11:07:06.254Z,20.6
2018-12-31T11:07:55.426Z,20.6
2018-12-31T11:08:46.571Z,20.6
2018-12-31T11:09:35.523Z,20.6
2018-12-31T11:10:26.483Z,20.6
2018-12-31T11:11:15.949Z,20.6
2018-12-31T11:12:05.768Z,20.6
2018-12-31T11:12:56.295Z,20.6
2018-12-31T11:13:46.365Z,20.6
2018-12-31T11:14:36.233Z,20.6
2018-12-31T11:15:26.785Z,20.7
2018-12-31T11:16:15.808Z,20.7
2018-12-31T11:17:06.093Z,20.7
2018-12-31T11:17:57.922Z,20.8
2018-12-31T11:18:46.417Z,20.8
2018-12-31T11:19:38.515Z,20.8
2018-12-31T11:20:26.638Z,20.8
2018-12-31T11:21:16.861Z,20.8
2018-12-31T11:22:06.980Z,20.8
2018-12-31T11:22:56.789Z,20.8
2018-12-31T11:23:46.487Z,20.8
2018-12-31T11:24:36.845Z,20.9
2018-12-31T11:25:27.965Z,20.8
2018-12-31T11:26:15.862Z,20.9
2018-12-31T11:27:06.438Z,20.9
2018-12-31T11:27:57.853Z,20.8
2018-12-31T11:28:47.137Z,20.8
2018-12-31T11:29:37.963Z,20.8
2018-12-31T11:30:27.624Z,20.8
2018-12-31T11:31:17.854Z,20.8
2018-12-31T11:32:07.337Z,20.8
2018-12-31T11:32:57.659Z,20.8
2018-12-31T11:33:48.262Z,20.8
2018-12-31T11:34:37.555Z,20.8
2018-12-31T11:35:27.264Z,20.8
2018-12-31T11:36:18.165Z,20.8
2018-12-31T11:37:07.964Z,20.8
2018-12-31T11:37:58.094Z,20.8
2018-12-31T11:38:48.064Z,20.8
2018-12-31T11:39:36.809Z,20.8
2018-12-31T11:40:27.718Z,20.8
2018-12-31T11:41:19.025Z,20.8
2018-12-31T11:42:07.744Z,20.8
2018-12-31T11:42:57.798Z,20.8
2018-12-31T11:43:48.396Z,20.8
2018-12-31T11:44:38.169Z,20.8
2018-12-31T11:45:29.123Z,20.8
2018-12-31T11:46:19.144Z,20.8
2018-12-31T11:47:09.434Z,20.8
2018-12-31T11:47:58.953Z,20.8
2018-12-31T11:48:48.483Z,20.9
2018-12-31T11:49:39.094Z,20.9
2018-12-31T11:50:28.911Z,20.9
2018-12-31T11:51:18.929Z,20.9
2018-12-31T11:52:08.958Z,20.9
2018-12-31T11:52:59.010Z,20.9
2018-12-31T11:53:49.065Z,20.9
2018-12-31T11:54:40.873Z,20.9
2018-12-31T11:55:28.733Z,20.9
2018-12-31T11:56:19.045Z,20.9
2018-12-31T11:57:09.288Z,20.9
2018-12-31T11:57:59.123Z,20.9
2018-12-31T11:58:49.685Z,20.9
2018-12-31T11:59:39.193Z,20.9
2018-12-31T12:00:28.789Z,20.9
2018-12-31T12:01:20.293Z,20.8
2018-12-31T12:02:08.828Z,20.8
2018-12-31T12:02:59.485Z,20.8